Wausau Downtown Airport
KAUW : now visible

Airfield :











YOU CAN JOIN US ON...

 
LOGIN :

Register | Disclaimer

   EN    FR    IT 

 









Legend :    VFR   Marginal VFR   IFR   Intensive IFR   Very Intensive IFR
Visi :
Ceiling :
>= 8 km
>= 3000ft
5 to 8 km
1000 to 3000 ft
1500m to 5 km
500 to 1000 ft
800 to 1500m
200 to 500 ft
< 800m
< 200 ft
Symbols :   Thunderstorms  Fog  Heavy snow  Heavy precipitations  Wind > 20 kt






- Airport Elevation : 1201 ft


KAUW - Wausau Downtown

CURRENT METAR :
  • 140903Z AUTO 30007KT 10SM OVC029 M06/M09 A3004 RMK AO2 T10611089

EXPIRED METARs :
  • 140854Z AUTO 31005KT 10SM OVC030 M06/M09 A3004 RMK AO2 SLP197 T10611089 51011
  • 140754Z AUTO 30006KT 10SM OVC030 M07/M09 A3003 RMK AO2 SLP194 T10671089
  • 140654Z AUTO 31003KT 10SM OVC032 M07/M08 A3002 RMK AO2 SLP191 T10671083

TAF KAUW
Valid from the 14 at 09:00 until the 15 at 06:00 UTC


140837Z 1409/1506 31004KT P6SM SCT025 OVC030
FM141400 31004KT P6SM SCT025
FM141700 27007KT P6SM SKC
FM142300 26008KT P6SM SCT150



MET'MAP, your aeronautical weather chart ! - Copyright ORBIFLY December 2007 - Disclaimer

ORBIFLY MET'MAP TEAM :

Programming & Development : Alexandra Zaïnal
Concept & Development : Baudouin d'Aumeries
Co-Development & Prog : Marc-Olivier Méhu
Technical & hardware support : Manuel Goepfert

Contact : metmap@orbifly.com




SOURCES & CREDITS :

   NOAA       Earth
Advisory